createdAt,value
2022-11-26T00:02:35.083Z,2.77
2022-11-26T00:05:02.101Z,2.83
2022-11-26T00:07:31.169Z,2.85
2022-11-26T00:09:59.423Z,2.87
2022-11-26T00:12:29.407Z,2.90
2022-11-26T00:14:56.607Z,2.90
2022-11-26T00:17:23.625Z,2.87
2022-11-26T00:19:50.407Z,2.93
2022-11-26T00:22:30.432Z,3.03
2022-11-26T00:24:57.732Z,2.99
2022-11-26T00:27:27.539Z,3.02
2022-11-26T00:29:55.068Z,3.04
2022-11-26T00:32:24.745Z,3.04
2022-11-26T00:34:52.328Z,3.07
2022-11-26T00:37:23.577Z,3.06
2022-11-26T00:39:52.485Z,3.00
2022-11-26T00:42:20.700Z,2.97
2022-11-26T00:44:47.822Z,2.99
2022-11-26T00:47:14.785Z,2.96
2022-11-26T00:49:42.157Z,2.96
2022-11-26T00:52:33.792Z,2.93
2022-11-26T00:55:06.510Z,2.87
2022-11-26T00:57:33.381Z,2.83
2022-11-26T01:00:03.739Z,2.78
2022-11-26T01:02:30.703Z,2.71
2022-11-26T01:04:57.749Z,2.62
2022-11-26T01:07:25.093Z,2.51
2022-11-26T01:09:52.028Z,2.44
2022-11-26T01:12:21.358Z,2.35
2022-11-26T01:14:49.894Z,2.22
2022-11-26T01:17:17.020Z,2.20
2022-11-26T01:19:45.384Z,2.09
2022-11-26T01:22:37.580Z,2.07
2022-11-26T01:25:04.754Z,2.01
2022-11-26T01:27:31.632Z,1.99
2022-11-26T01:29:58.406Z,1.93
2022-11-26T01:32:29.330Z,1.93
2022-11-26T01:34:56.400Z,1.94
2022-11-26T01:37:23.183Z,1.92
2022-11-26T01:39:50.025Z,1.90
2022-11-26T01:42:42.559Z,1.90
2022-11-26T01:45:21.060Z,1.92
2022-11-26T01:47:51.098Z,1.89
2022-11-26T01:50:33.036Z,1.89
2022-11-26T01:53:06.628Z,1.87
2022-11-26T01:55:40.091Z,1.87
2022-11-26T01:58:10.964Z,1.84
2022-11-26T02:00:37.907Z,1.80
2022-11-26T02:03:05.209Z,1.80
2022-11-26T02:05:39.221Z,1.73
2022-11-26T02:08:06.658Z,1.72
2022-11-26T02:10:34.471Z,1.68
2022-11-26T02:13:01.347Z,1.62
2022-11-26T02:15:36.858Z,1.64
2022-11-26T02:18:09.571Z,1.66
2022-11-26T02:20:38.997Z,1.64
2022-11-26T02:23:11.714Z,1.62
2022-11-26T02:25:53.698Z,1.61
2022-11-26T02:28:37.105Z,1.57
2022-11-26T02:31:33.909Z,1.54
2022-11-26T02:34:18.271Z,1.50
2022-11-26T02:36:53.871Z,1.51
2022-11-26T02:39:23.527Z,1.47
2022-11-26T02:41:53.542Z,1.49
2022-11-26T04:45:46.055Z,0.06
2022-11-26T04:48:12.918Z,0.14
2022-11-26T04:50:39.763Z,0.15
2022-11-26T04:53:07.487Z,0.17
2022-11-26T04:55:34.299Z,0.19
2022-11-26T04:58:01.198Z,0.24
2022-11-26T05:00:28.113Z,0.24
2022-11-26T05:02:55.311Z,0.25
2022-11-26T05:05:22.234Z,0.26
2022-11-26T05:07:49.056Z,0.26
2022-11-26T06:44:50.794Z,0.02
2022-11-26T06:47:17.642Z,0.14
2022-11-26T06:49:44.595Z,0.28
2022-11-26T06:52:11.642Z,0.40
2022-11-26T06:54:38.770Z,0.49
2022-11-26T06:57:05.697Z,0.61
2022-11-26T06:59:32.773Z,0.72
2022-11-26T07:01:59.788Z,0.78
2022-11-26T07:04:26.686Z,0.85
2022-11-26T07:06:53.507Z,0.89
2022-11-26T07:09:20.357Z,0.94
2022-11-26T07:11:47.142Z,1.00
2022-11-26T07:14:13.997Z,1.09
2022-11-26T07:16:40.779Z,1.10
2022-11-26T07:19:07.639Z,1.20
2022-11-26T07:21:34.437Z,1.35
2022-11-26T07:24:01.209Z,1.40
2022-11-26T07:26:28.001Z,1.53
2022-11-26T07:28:54.858Z,1.58
2022-11-26T07:31:23.200Z,1.63
2022-11-26T07:33:50.815Z,1.69
2022-11-26T07:36:20.741Z,1.69
2022-11-26T07:38:48.551Z,1.79
2022-11-26T07:41:18.304Z,1.82
2022-11-26T07:43:45.897Z,1.89
2022-11-26T07:46:15.652Z,1.98
2022-11-26T07:48:42.853Z,2.06
2022-11-26T07:51:18.685Z,2.12
2022-11-26T07:53:46.256Z,2.14
2022-11-26T07:56:13.157Z,2.22
2022-11-26T07:58:40.276Z,2.28
2022-11-26T08:01:15.264Z,2.31
2022-11-26T08:03:46.086Z,2.40
2022-11-26T08:06:17.429Z,2.59
2022-11-26T08:08:44.384Z,2.77
2022-11-26T08:11:23.361Z,2.81
2022-11-26T08:13:54.401Z,2.88
2022-11-26T08:16:21.357Z,2.88
2022-11-26T08:18:48.635Z,2.85
2022-11-26T08:21:15.516Z,2.82
2022-11-26T08:23:42.418Z,2.91
2022-11-26T08:26:23.820Z,2.90
2022-11-26T08:28:53.546Z,2.89
2022-11-26T08:31:20.900Z,2.91
2022-11-26T08:33:48.668Z,2.96
2022-11-26T08:36:15.565Z,2.88
2022-11-26T08:38:42.405Z,2.86
2022-11-26T08:41:11.388Z,2.85
2022-11-26T08:44:05.031Z,2.89
2022-11-26T08:46:26.299Z,2.86
2022-11-26T08:48:56.392Z,2.89
2022-11-26T08:51:25.077Z,3.01
2022-11-26T08:53:52.139Z,3.04
2022-11-26T08:56:19.211Z,3.06
2022-11-26T08:58:47.138Z,3.09
2022-11-26T09:01:17.362Z,3.17
2022-11-26T09:03:47.823Z,3.18
2022-11-26T09:06:14.909Z,3.25
2022-11-26T09:09:00.315Z,3.23
2022-11-26T09:11:28.060Z,3.27
2022-11-26T09:13:59.327Z,3.29
2022-11-26T09:16:27.057Z,3.21
2022-11-26T09:18:53.933Z,3.24
2022-11-26T09:21:21.698Z,3.25
2022-11-26T09:23:48.947Z,3.38
2022-11-26T09:26:15.815Z,3.55
2022-11-26T09:28:42.653Z,3.76
2022-11-26T09:31:09.533Z,4.05
2022-11-26T09:33:36.470Z,4.04
2022-11-26T09:36:05.728Z,4.23
2022-11-26T09:38:32.816Z,4.52
2022-11-26T09:41:18.198Z,4.81
2022-11-26T09:44:09.820Z,5.38
2022-11-26T09:47:11.094Z,5.65
2022-11-26T09:49:41.657Z,5.89
2022-11-26T09:52:11.776Z,5.79
2022-11-26T09:54:40.454Z,5.72
2022-11-26T09:57:22.702Z,5.85
2022-11-26T09:59:52.147Z,6.01
2022-11-26T10:02:19.087Z,6.10
2022-11-26T10:04:46.967Z,6.29
2022-11-26T10:07:32.598Z,6.67
2022-11-26T10:10:12.049Z,7.01
2022-11-26T10:13:03.034Z,7.40
2022-11-26T10:16:04.092Z,7.89
2022-11-26T10:18:43.093Z,8.31
2022-11-26T10:21:27.257Z,8.33
2022-11-26T10:24:30.103Z,8.42
2022-11-26T10:26:59.885Z,8.47
2022-11-26T10:29:48.329Z,8.43
2022-11-26T10:32:20.784Z,8.43
2022-11-26T10:34:52.389Z,8.43
2022-11-26T10:37:21.913Z,8.47
2022-11-26T10:39:59.170Z,8.57
2022-11-26T10:42:39.537Z,8.57
2022-11-26T10:45:21.174Z,8.78
2022-11-26T10:47:48.150Z,8.79
2022-11-26T10:50:46.584Z,8.98
2022-11-26T10:53:14.905Z,9.28
2022-11-26T10:55:43.994Z,9.39
2022-11-26T10:58:26.652Z,9.40
2022-11-26T11:01:04.808Z,9.32
2022-11-26T11:06:28.539Z,9.09
2022-11-26T11:08:55.818Z,9.17
2022-11-26T11:11:30.912Z,9.30
2022-11-26T11:13:58.402Z,9.14
2022-11-26T11:16:31.212Z,9.29
2022-11-26T11:19:02.208Z,9.29
2022-11-26T11:21:34.164Z,9.30
2022-11-26T11:24:16.637Z,9.55
2022-11-26T11:26:45.764Z,9.70
2022-11-26T11:29:28.876Z,9.48
2022-11-26T11:31:57.808Z,9.25
2022-11-26T11:34:38.865Z,9.16
2022-11-26T11:37:21.584Z,9.68
2022-11-26T11:40:07.319Z,9.80
2022-11-26T11:42:34.164Z,10.08
2022-11-26T11:45:04.382Z,9.95
2022-11-26T11:47:44.087Z,10.04
2022-11-26T11:50:32.240Z,9.99
2022-11-26T11:53:08.050Z,10.39
2022-11-26T11:56:11.924Z,10.26
2022-11-26T11:58:50.782Z,10.21
2022-11-26T12:01:29.284Z,10.72
2022-11-26T12:04:21.028Z,10.78
2022-11-26T12:06:54.025Z,10.83
2022-11-26T12:09:45.616Z,10.67
2022-11-26T12:12:12.751Z,11.00
2022-11-26T12:14:44.685Z,11.17
2022-11-26T12:17:33.551Z,11.06
2022-11-26T12:20:26.133Z,11.42
2022-11-26T12:23:13.194Z,11.60
2022-11-26T12:25:44.307Z,11.29
2022-11-26T12:28:25.824Z,11.24
2022-11-26T12:31:03.062Z,11.43
2022-11-26T12:34:08.364Z,11.62
2022-11-26T12:36:54.033Z,11.83
2022-11-26T12:39:49.232Z,11.40
2022-11-26T12:42:48.144Z,11.90
2022-11-26T12:45:41.814Z,12.09
2022-11-26T12:48:56.623Z,12.07
2022-11-26T12:51:34.721Z,12.14
2022-11-26T12:54:13.855Z,11.84
2022-11-26T12:57:10.732Z,12.05
2022-11-26T12:59:50.360Z,12.38
2022-11-26T13:02:25.171Z,12.39
2022-11-26T13:04:53.281Z,12.42
2022-11-26T13:07:29.831Z,12.02
2022-11-26T13:10:01.666Z,11.95
2022-11-26T13:12:28.513Z,11.88
2022-11-26T13:15:07.342Z,12.12
2022-11-26T13:17:50.376Z,12.18
2022-11-26T13:20:45.280Z,11.72
2022-11-26T13:23:45.694Z,11.44
2022-11-26T13:26:34.157Z,11.33
2022-11-26T13:29:08.395Z,11.21
2022-11-26T13:32:13.253Z,11.66
2022-11-26T13:35:17.737Z,11.81
2022-11-26T13:38:12.872Z,12.13
2022-11-26T13:41:24.550Z,12.04
2022-11-26T13:43:57.431Z,11.73
2022-11-26T13:46:39.158Z,11.79
2022-11-26T13:49:25.274Z,12.07
2022-11-26T13:52:00.296Z,11.90
2022-11-26T13:54:54.096Z,11.71
2022-11-26T13:57:25.617Z,11.15
2022-11-26T13:59:55.906Z,10.76
2022-11-26T14:02:42.764Z,10.45
2022-11-26T14:05:18.644Z,10.16
2022-11-26T14:07:46.326Z,9.85
2022-11-26T14:10:35.675Z,9.45
2022-11-26T14:13:02.657Z,9.14
2022-11-26T14:15:52.046Z,8.71
2022-11-26T14:18:51.804Z,8.57
2022-11-26T14:21:20.244Z,8.33
2022-11-26T14:23:53.180Z,8.13
2022-11-26T14:26:26.025Z,7.95
2022-11-26T14:29:06.191Z,7.81
2022-11-26T14:31:34.588Z,7.70
2022-11-26T14:34:31.284Z,7.66
2022-11-26T14:37:00.501Z,7.55
2022-11-26T14:39:33.888Z,7.47
2022-11-26T14:42:05.989Z,7.52
2022-11-26T14:44:33.648Z,7.47
2022-11-26T14:47:30.604Z,7.45
2022-11-26T14:49:59.050Z,7.33
2022-11-26T14:52:41.429Z,7.28
2022-11-26T14:55:20.974Z,7.24
2022-11-26T14:58:09.336Z,7.26
2022-11-26T15:00:37.184Z,7.19
2022-11-26T15:03:18.957Z,7.13
2022-11-26T15:05:45.891Z,7.04
2022-11-26T15:08:17.045Z,6.89
2022-11-26T15:10:52.332Z,6.51
2022-11-26T15:13:57.140Z,6.42
2022-11-26T15:16:30.854Z,6.38
2022-11-26T15:18:59.031Z,6.27
2022-11-26T15:21:27.879Z,6.08
2022-11-26T15:23:58.568Z,6.00
2022-11-26T15:26:32.368Z,5.83
2022-11-26T15:28:59.385Z,5.67
2022-11-26T15:31:39.879Z,5.39
2022-11-26T15:34:15.017Z,5.22
2022-11-26T15:36:41.935Z,5.27
2022-11-26T15:39:26.715Z,5.16
2022-11-26T15:41:57.362Z,5.12
2022-11-26T15:44:27.424Z,5.12
2022-11-26T15:46:57.289Z,5.13
2022-11-26T15:49:38.195Z,5.06
2022-11-26T15:52:13.787Z,4.99
2022-11-26T15:55:11.271Z,4.85
2022-11-26T15:57:39.980Z,4.57
2022-11-26T16:00:23.466Z,4.55
2022-11-26T16:02:52.390Z,4.49
2022-11-26T16:05:24.109Z,4.34
2022-11-26T16:08:03.865Z,4.26
2022-11-26T16:10:35.753Z,4.21
2022-11-26T16:13:16.066Z,4.13
2022-11-26T16:16:13.599Z,4.04
2022-11-26T16:18:44.427Z,3.75
2022-11-26T16:21:14.372Z,3.69
2022-11-26T16:23:42.197Z,3.65
2022-11-26T16:26:17.850Z,3.73
2022-11-26T16:28:46.216Z,3.72
2022-11-26T16:31:14.949Z,3.66
2022-11-26T16:33:42.455Z,3.66
2022-11-26T16:36:32.565Z,3.57
2022-11-26T16:38:59.432Z,3.52
2022-11-26T16:41:26.583Z,3.50
2022-11-26T16:43:53.404Z,3.45
2022-11-26T16:46:27.891Z,3.42
2022-11-26T16:48:54.915Z,3.38
2022-11-26T16:51:22.902Z,3.38
2022-11-26T16:53:49.812Z,3.36
2022-11-26T16:56:27.032Z,3.41
2022-11-26T16:58:54.878Z,3.50
2022-11-26T17:01:21.808Z,3.45
2022-11-26T17:03:48.813Z,3.40
2022-11-26T17:06:24.454Z,3.39
2022-11-26T17:08:52.291Z,3.32
2022-11-26T17:11:19.308Z,3.18
2022-11-26T17:13:46.460Z,3.13
2022-11-26T17:16:20.185Z,3.19
2022-11-26T17:18:48.059Z,3.15
2022-11-26T17:21:15.235Z,3.12
2022-11-26T17:23:42.206Z,3.05
2022-11-26T17:26:19.211Z,2.97
2022-11-26T17:28:46.531Z,2.95
2022-11-26T17:31:15.936Z,2.86
2022-11-26T17:33:42.830Z,2.93
2022-11-26T17:36:17.394Z,2.87
2022-11-26T17:38:44.997Z,2.76
2022-11-26T17:41:12.098Z,2.76
2022-11-26T17:43:39.165Z,2.71
2022-11-26T17:46:19.626Z,2.71
2022-11-26T17:48:47.864Z,2.69
2022-11-26T17:51:16.624Z,2.63
2022-11-26T17:53:45.173Z,2.60
2022-11-26T17:56:27.101Z,2.55
2022-11-26T17:58:54.841Z,2.51
2022-11-26T18:01:21.859Z,2.51
2022-11-26T18:03:49.078Z,2.48
2022-11-26T18:06:18.937Z,2.40
2022-11-26T18:08:46.915Z,2.42
2022-11-26T18:11:16.784Z,2.40
2022-11-26T18:13:44.209Z,2.39
2022-11-26T18:16:12.475Z,2.35
2022-11-26T18:18:40.764Z,2.31
2022-11-26T18:21:09.920Z,2.36
2022-11-26T18:23:36.819Z,2.33
2022-11-26T18:26:03.710Z,2.28
2022-11-26T18:28:30.909Z,2.28
2022-11-26T18:30:58.793Z,2.32
2022-11-26T18:33:25.692Z,2.28
2022-11-26T18:35:52.503Z,2.35
2022-11-26T18:38:19.438Z,2.33
2022-11-26T18:40:46.230Z,2.35
2022-11-26T18:43:13.130Z,2.34
2022-11-26T18:45:42.310Z,2.38
2022-11-26T18:48:09.172Z,2.37
2022-11-26T18:50:35.952Z,2.35
2022-11-26T18:53:02.878Z,2.34
2022-11-26T18:55:29.733Z,2.31
2022-11-26T18:57:56.547Z,2.30
2022-11-26T19:00:23.953Z,2.31
2022-11-26T19:02:50.947Z,2.31
2022-11-26T19:05:18.417Z,2.31
2022-11-26T19:07:45.864Z,2.30
2022-11-26T19:10:13.215Z,2.31
2022-11-26T19:12:52.357Z,2.32
2022-11-26T19:15:19.142Z,2.30
2022-11-26T19:17:46.029Z,2.24
2022-11-26T19:20:14.304Z,2.31
2022-11-26T19:22:42.889Z,2.30
2022-11-26T19:25:12.359Z,2.31
2022-11-26T19:27:39.432Z,2.31
2022-11-26T19:30:09.220Z,2.23
2022-11-26T19:32:36.105Z,2.30
2022-11-26T19:35:06.053Z,2.21
2022-11-26T19:37:34.389Z,2.25
2022-11-26T19:40:02.296Z,2.18
2022-11-26T19:42:30.149Z,2.24
2022-11-26T19:44:56.925Z,2.13
2022-11-26T19:47:23.723Z,2.21
2022-11-26T19:49:50.753Z,2.18
2022-11-26T19:52:17.519Z,2.17
2022-11-26T19:54:44.331Z,2.12
2022-11-26T19:57:12.724Z,2.13
2022-11-26T19:59:40.101Z,2.06
2022-11-26T20:02:08.773Z,2.08
2022-11-26T20:04:35.631Z,2.08
2022-11-26T20:07:02.615Z,2.07
2022-11-26T20:09:29.374Z,2.07
2022-11-26T20:11:56.197Z,2.07
2022-11-26T20:14:23.051Z,2.07
2022-11-26T20:16:50.202Z,2.08
2022-11-26T20:19:18.999Z,2.04
2022-11-26T20:21:45.957Z,2.06
2022-11-26T20:24:16.739Z,2.06
2022-11-26T20:26:45.594Z,1.99
2022-11-26T20:29:14.330Z,2.01
2022-11-26T20:31:47.190Z,2.02
2022-11-26T20:34:15.818Z,1.93
2022-11-26T20:36:42.866Z,1.93
2022-11-26T20:39:13.844Z,1.88
2022-11-26T20:41:40.714Z,1.82
2022-11-26T20:44:08.621Z,1.74
2022-11-26T20:46:36.451Z,1.66
2022-11-26T20:49:04.614Z,1.60
2022-11-26T20:51:31.742Z,1.55
2022-11-26T20:53:59.968Z,1.53
2022-11-26T20:56:27.478Z,1.55
2022-11-26T20:58:54.593Z,1.52
2022-11-26T21:01:24.162Z,1.51
2022-11-26T21:03:51.988Z,1.50
2022-11-26T21:06:27.399Z,1.49
2022-11-26T21:08:58.822Z,1.49
2022-11-26T21:11:25.621Z,1.48
2022-11-26T21:13:52.611Z,1.47
2022-11-26T21:16:19.816Z,1.37
2022-11-26T21:18:46.666Z,1.30
2022-11-26T21:21:16.425Z,1.36
2022-11-26T21:23:45.404Z,1.41
2022-11-26T21:26:16.610Z,1.46
2022-11-26T21:28:43.988Z,1.49
2022-11-26T21:31:14.907Z,1.50
2022-11-26T21:33:41.952Z,1.52
2022-11-26T21:36:15.232Z,1.50
2022-11-26T21:38:43.144Z,1.48
2022-11-26T21:41:15.601Z,1.46
2022-11-26T21:43:44.331Z,1.44
2022-11-26T21:46:25.718Z,1.39
2022-11-26T21:48:59.239Z,1.43
2022-11-26T21:51:30.384Z,1.41
2022-11-26T21:53:58.552Z,1.30
2022-11-26T21:56:29.559Z,1.27
2022-11-26T21:58:58.050Z,1.28
2022-11-26T22:01:28.229Z,1.24
2022-11-26T22:03:56.856Z,1.22
2022-11-26T22:06:24.373Z,1.16
2022-11-26T22:08:52.298Z,1.10
2022-11-26T22:11:24.524Z,1.02
2022-11-26T22:13:52.030Z,1.00
2022-11-26T22:16:21.944Z,0.97
2022-11-26T22:18:49.969Z,0.93
2022-11-26T22:21:22.649Z,0.90
2022-11-26T22:23:49.778Z,0.80
2022-11-26T22:26:16.581Z,0.85
2022-11-26T22:28:43.405Z,0.86
2022-11-26T22:31:15.262Z,0.83
2022-11-26T22:33:43.797Z,0.88
2022-11-26T22:36:11.242Z,0.87
2022-11-26T22:38:39.785Z,0.88
2022-11-26T22:41:09.552Z,0.86
2022-11-26T22:43:37.489Z,0.87
2022-11-26T22:46:10.455Z,0.84
2022-11-26T22:48:37.421Z,0.82
2022-11-26T22:51:04.767Z,0.83
2022-11-26T22:53:33.500Z,0.77
2022-11-26T22:56:02.317Z,0.78
2022-11-26T22:58:32.694Z,0.74
2022-11-26T23:01:04.670Z,0.73
2022-11-26T23:03:34.109Z,0.66
2022-11-26T23:06:08.523Z,0.58
2022-11-26T23:08:36.763Z,0.47
2022-11-26T23:11:17.419Z,0.45
2022-11-26T23:13:50.272Z,0.39
2022-11-26T23:16:19.036Z,0.34
2022-11-26T23:18:47.579Z,0.30
2022-11-26T23:21:18.332Z,0.24
2022-11-26T23:23:46.203Z,0.26
2022-11-26T23:26:27.391Z,0.25
2022-11-26T23:28:58.646Z,0.24
2022-11-26T23:31:34.603Z,0.22
2022-11-26T23:34:02.439Z,0.13
2022-11-26T23:36:30.505Z,0.16
2022-11-26T23:39:00.697Z,0.15
2022-11-26T23:41:28.342Z,0.12
2022-11-26T23:43:55.377Z,0.09
2022-11-26T23:46:28.183Z,0.08
2022-11-26T23:48:56.623Z,0.10
2022-11-26T23:51:31.793Z,0.11
2022-11-26T23:53:58.772Z,0.08
2022-11-26T23:56:28.264Z,0.15
2022-11-26T23:58:56.534Z,0.20
